Stanton, MN

10:32 AM CST on December 14, 2019 (GMT -0600)
Stanton

Weather History for KSYN - October, 2019

Change the Weather History Date:

Tuesday, October 29, 2019

  Actual Average (WUND) Record (WUND)
Temperature  
Mean Temperature 32 °F -  
Max Temperature 40 °F - - (-1)
Min Temperature 23 °F - - (-1)
Degree Days  
Heating Degree Days 34    
Moisture  
Dew Point 23 °F    
Average Humidity 74    
Maximum Humidity 94    
Minimum Humidity 45    
Precipitation  
Precipitation 0.00 in - - ()
Sea Level Pressure  
Sea Level Pressure 30.22 in    
Wind  
Wind Speed 5 mph ()    
Max Wind Speed 12 mph    
Max Gust Speed -    
Visibility 10.0 miles    
Events      
Averages and records for this station are not official NWS values.
T = Trace of Precipitation, MM = Missing Value Source: Averaged Metar Reports

Daily Weather History Graph

Daily Weather History Graph

Search for Another Location

Airport or City:

Astronomy

Oct. 29, 2019 Rise Set
Actual Time 7:45 AM CDT 6:05 PM CDT
Civil Twilight 7:15 AM CDT 6:35 PM CDT
Nautical Twilight 6:40 AM CDT 7:09 PM CDT
Astronomical Twilight 6:07 AM CDT 7:43 PM CDT
Moon 9:21 AM CDT (10/29) 7:27 PM CDT (10/29)
Length of Visible Light 11h 20m
Length of Day
10h 20m
Waxing Crescent, 3% of the Moon is Illuminated
Oct 29
Waxing Crescent
Nov 4
First Quarter
Nov 12
Full
Nov 19
Last Quarter
Nov 26
New

Hourly Weather History & Observations

Time (CDT) Temp. Windchill Dew Point Humidity Pressure Visibility Wind Dir Wind Speed Gust Speed Precip Events Conditions
12:15 AM 30.2 °F 24.3 °F 26.6 °F 86% 30.13 in 10.0 mi SSW 5.8 mph - N/A   Overcast
12:16 AM 30.2 °F 24.3 °F 26.6 °F 86% 30.13 in 10.0 mi SSW 5.8 mph - N/A   Overcast
12:35 AM 30.2 °F 24.3 °F 26.4 °F 86% 30.13 in 10.0 mi SW 5.8 mph - N/A   Overcast
12:55 AM 30.2 °F 24.3 °F 26.2 °F 85% 30.14 in 10.0 mi SW 5.8 mph - N/A   Overcast
1:35 AM 29.7 °F 23.7 °F 25.9 °F 86% 30.14 in 10.0 mi SW 5.8 mph - N/A   Overcast
1:55 AM 28.8 °F 25.0 °F 25.5 °F 88% 30.13 in 10.0 mi SW 3.5 mph - N/A   Overcast
2:15 AM 28.0 °F 24.2 °F 25.2 °F 89% 30.13 in 10.0 mi SSW 3.5 mph - N/A   Mostly Cloudy
2:35 AM 26.6 °F - 24.3 °F 91% 30.13 in 10.0 mi Calm Calm - N/A   Scattered Clouds
2:36 AM 26.6 °F - 24.3 °F 91% 30.13 in 10.0 mi Calm Calm - N/A   Scattered Clouds
2:55 AM 26.1 °F - 24.1 °F 92% 30.10 in 10.0 mi Calm Calm - N/A   Clear
2:56 AM 26.1 °F - 24.1 °F 92% 30.10 in 10.0 mi Calm Calm - N/A   Clear
3:15 AM 25.7 °F - 24.1 °F 94% 30.10 in 10.0 mi Calm Calm - N/A   Clear
3:16 AM 25.7 °F - 24.1 °F 94% 30.10 in 10.0 mi Calm Calm - N/A   Clear
3:35 AM 25.0 °F 20.7 °F 23.2 °F 93% 30.11 in 10.0 mi SSW 3.5 mph - N/A   Clear
3:36 AM 25.0 °F 20.7 °F 23.2 °F 93% 30.11 in 10.0 mi SSW 3.5 mph - N/A   Clear
3:55 AM 25.3 °F 19.7 °F 23.7 °F 94% 30.13 in 10.0 mi South 4.6 mph - N/A   Clear
4:15 AM 24.4 °F 18.6 °F 22.5 °F 92% 30.14 in 10.0 mi SSW 4.6 mph - N/A   Clear
4:16 AM 24.3 °F 18.4 °F 22.5 °F 93% 30.14 in 10.0 mi SSW 4.6 mph - N/A   Clear
4:35 AM 24.8 °F 19.1 °F 23.0 °F 93% 30.14 in 10.0 mi South 4.6 mph - N/A   Clear
4:55 AM 24.6 °F 18.8 °F 22.6 °F 92% 30.15 in 10.0 mi SSW 4.6 mph - N/A   Clear
4:56 AM 24.6 °F 18.8 °F 22.6 °F 92% 30.15 in 10.0 mi SSW 4.6 mph - N/A   Clear
5:15 AM 23.9 °F 18.0 °F 22.1 °F 93% 30.15 in 10.0 mi SSW 4.6 mph - N/A   Clear
5:35 AM 24.1 °F 19.7 °F 22.5 °F 94% 30.15 in 10.0 mi SSW 3.5 mph - N/A   Clear
5:55 AM 24.8 °F 17.9 °F 22.8 °F 92% 30.15 in 10.0 mi South 5.8 mph - N/A   Clear
5:56 AM 24.8 °F 17.9 °F 23.0 °F 93% 30.15 in 10.0 mi South 5.8 mph - N/A   Clear
6:15 AM 23.7 °F 17.8 °F 21.7 °F 92% 30.16 in 10.0 mi SSW 4.6 mph - N/A   Clear
6:35 AM 23.9 °F 19.5 °F 22.1 °F 93% 30.16 in 10.0 mi SSW 3.5 mph - N/A   Clear
6:55 AM 23.4 °F 17.4 °F 21.2 °F 91% 30.16 in 10.0 mi SSW 4.6 mph - N/A   Clear
7:15 AM 23.7 °F 17.8 °F 21.7 °F 92% 30.16 in 10.0 mi SSW 4.6 mph - N/A   Clear
7:16 AM 23.7 °F 17.8 °F 21.9 °F 93% 30.16 in 10.0 mi SSW 4.6 mph - N/A   Clear
7:55 AM 24.4 °F 18.6 °F 22.1 °F 91% 30.17 in 10.0 mi SSW 4.6 mph - N/A   Clear
8:15 AM 23.7 °F 19.3 °F 21.7 °F 92% 30.18 in 10.0 mi SSW 3.5 mph - N/A   Clear
8:16 AM 23.7 °F 19.3 °F 21.7 °F 92% 30.17 in 10.0 mi SSW 3.5 mph - N/A   Clear
8:35 AM 24.8 °F 17.9 °F 22.6 °F 91% 30.18 in 10.0 mi SSW 5.8 mph - N/A   Clear
8:55 AM 26.1 °F 21.9 °F 23.4 °F 90% 30.19 in 10.0 mi SSW 3.5 mph - N/A   Clear
9:15 AM 28.8 °F 23.7 °F 25.3 °F 87% 30.20 in 10.0 mi SSW 4.6 mph - N/A   Clear
9:16 AM 28.9 °F 23.9 °F 25.3 °F 86% 30.20 in 10.0 mi SSW 4.6 mph - N/A   Clear
9:35 AM 29.8 °F 26.3 °F 25.2 °F 83% 30.20 in 10.0 mi WSW 3.5 mph - N/A   Clear
9:36 AM 29.8 °F 26.3 °F 25.2 °F 83% 30.20 in 10.0 mi WSW 3.5 mph - N/A   Clear
9:55 AM 30.2 °F 25.4 °F 25.0 °F 81% 30.21 in 10.0 mi WSW 4.6 mph - N/A   Clear
10:15 AM 31.5 °F 25.8 °F 25.2 °F 78% 30.22 in 10.0 mi WSW 5.8 mph - N/A   Clear
10:35 AM 32.7 °F 26.4 °F 26.8 °F 79% 30.23 in 10.0 mi West 6.9 mph - N/A   Clear
10:55 AM 34.0 °F 26.6 °F 26.8 °F 75% 30.23 in 10.0 mi West 9.2 mph - N/A   Clear
11:15 AM 35.2 °F 28.1 °F 27.0 °F 72% 30.24 in 10.0 mi WNW 9.2 mph - N/A   Clear
11:16 AM 35.2 °F 27.6 °F 27.0 °F 72% 30.24 in 10.0 mi WNW 10.4 mph - N/A   Clear
11:35 AM 35.4 °F 28.4 °F 26.4 °F 70% 30.24 in 10.0 mi West 9.2 mph - N/A   Clear
11:36 AM 35.6 °F 28.6 °F 26.4 °F 69% 30.24 in 10.0 mi West 9.2 mph - N/A   Clear
11:55 AM 36.1 °F 29.3 °F 25.9 °F 66% 30.24 in 10.0 mi WNW 9.2 mph - N/A   Clear
12:15 PM 36.7 °F 32.0 °F 25.7 °F 64% 30.25 in 10.0 mi WNW 5.8 mph - N/A   Scattered Clouds
12:35 PM 37.9 °F 32.1 °F 25.5 °F 61% 30.25 in 10.0 mi West 8.1 mph - N/A   Clear
12:36 PM 37.9 °F 32.1 °F 25.3 °F 60% 30.25 in 10.0 mi WSW 8.1 mph - N/A   Clear
12:55 PM 38.5 °F 33.4 °F 25.0 °F 58% 30.25 in 10.0 mi WNW 6.9 mph - N/A   Clear
1:15 PM 39.0 °F 33.4 °F 25.3 °F 58% 30.25 in 10.0 mi West 8.1 mph - N/A   Clear
1:16 PM 39.0 °F 34.0 °F 25.0 °F 57% 30.25 in 10.0 mi West 6.9 mph - N/A   Clear
1:35 PM 39.2 °F 32.5 °F 22.8 °F 52% 30.25 in 10.0 mi WNW 10.4 mph - N/A   Clear
1:55 PM 39.2 °F 33.0 °F 21.7 °F 50% 30.24 in 10.0 mi West 9.2 mph - N/A   Clear
2:35 PM 39.9 °F 33.4 °F 23.4 °F 52% 30.24 in 10.0 mi WNW 10.4 mph - N/A   Clear
2:55 PM 40.1 °F 33.2 °F 21.7 °F 48% 30.23 in 10.0 mi West 11.5 mph - N/A   Clear
3:15 PM 40.1 °F 35.3 °F 21.6 °F 48% 30.23 in 10.0 mi WNW 6.9 mph - N/A   Clear
3:35 PM 40.1 °F 34.7 °F 21.0 °F 47% 30.23 in 10.0 mi WNW 8.1 mph - N/A   Clear
3:55 PM 39.6 °F 34.7 °F 19.9 °F 45% 30.24 in 10.0 mi West 6.9 mph - N/A   Clear
3:56 PM 39.6 °F 34.7 °F 19.8 °F 45% 30.24 in 10.0 mi West 6.9 mph - N/A   Clear
4:15 PM 39.2 °F 33.6 °F 19.8 °F 46% 30.25 in 10.0 mi West 8.1 mph - N/A   Clear
4:35 PM 38.7 °F 32.9 °F 20.3 °F 48% 30.25 in 10.0 mi West 8.1 mph - N/A   Clear
4:55 PM 38.3 °F 32.5 °F 21.7 °F 51% 30.24 in 10.0 mi West 8.1 mph - N/A   Clear
4:56 PM 38.3 °F 32.5 °F 21.7 °F 51% 30.24 in 10.0 mi West 8.1 mph - N/A   Clear
5:15 PM 37.4 °F 32.1 °F 21.6 °F 53% 30.24 in 10.0 mi West 6.9 mph - N/A   Clear
5:16 PM 37.4 °F 32.1 °F 21.7 °F 53% 30.24 in 10.0 mi West 6.9 mph - N/A   Clear
5:55 PM 34.7 °F 29.6 °F 22.1 °F 60% 30.26 in 10.0 mi West 5.8 mph - N/A   Clear
6:15 PM 34.0 °F 28.8 °F 21.7 °F 61% 30.26 in 10.0 mi West 5.8 mph - N/A   Clear
6:35 PM 32.5 °F 26.2 °F 21.2 °F 63% 30.26 in 10.0 mi West 6.9 mph - N/A   Clear
6:55 PM 32.0 °F 26.4 °F 20.5 °F 63% 30.28 in 10.0 mi West 5.8 mph - N/A   Clear
7:15 PM 31.3 °F 25.6 °F 20.7 °F 65% 30.28 in 10.0 mi West 5.8 mph - N/A   Clear
7:16 PM 31.5 °F 26.8 °F 20.5 °F 64% 30.28 in 10.0 mi West 4.6 mph - N/A   Clear
7:35 PM 31.6 °F 27.0 °F 20.3 °F 63% 30.30 in 10.0 mi West 4.6 mph - N/A   Clear
7:36 PM 31.6 °F 27.0 °F 20.3 °F 63% 30.30 in 10.0 mi West 4.6 mph - N/A   Clear
7:55 PM 31.5 °F 25.8 °F 20.1 °F 63% 30.30 in 10.0 mi West 5.8 mph - N/A   Clear
7:56 PM 31.5 °F 25.8 °F 20.1 °F 63% 30.30 in 10.0 mi West 5.8 mph - N/A   Clear
8:15 PM 31.1 °F 24.5 °F 20.1 °F 64% 30.31 in 10.0 mi West 6.9 mph - N/A   Clear
8:35 PM 30.2 °F 23.4 °F 20.8 °F 68% 30.31 in 10.0 mi West 6.9 mph - N/A   Clear
8:55 PM 29.8 °F 26.3 °F 20.8 °F 69% 30.32 in 10.0 mi WNW 3.5 mph - N/A   Clear
9:15 PM 29.3 °F 25.6 °F 20.3 °F 69% 30.32 in 10.0 mi West 3.5 mph - N/A   Clear
9:16 PM 29.3 °F 25.6 °F 20.3 °F 69% 30.32 in 10.0 mi West 3.5 mph - N/A   Clear
9:35 PM 28.8 °F - 20.5 °F 71% 30.33 in 10.0 mi Calm Calm - N/A   Clear
9:55 PM 29.3 °F - 19.9 °F 68% 30.33 in 10.0 mi Calm Calm - N/A   Clear
10:15 PM 29.1 °F - 20.3 °F 70% 30.34 in 10.0 mi Calm Calm - N/A   Clear
10:35 PM 28.9 °F - 19.9 °F 69% 30.34 in 10.0 mi Calm Calm - N/A   Clear
10:55 PM 27.9 °F - 20.1 °F 73% 30.34 in 10.0 mi Calm Calm - N/A   Clear
10:56 PM 28.0 °F - 20.1 °F 72% 30.34 in 10.0 mi Calm Calm - N/A   Clear
11:15 PM 28.4 °F - 19.8 °F 70% 30.34 in 10.0 mi Calm Calm - N/A   Clear
11:16 PM 28.4 °F - 19.8 °F 70% 30.34 in 10.0 mi Calm Calm - N/A   Clear
11:35 PM 27.9 °F 22.6 °F 19.4 °F 71% 30.34 in 10.0 mi West 4.6 mph - N/A   Clear
11:36 PM 27.9 °F 22.6 °F 19.4 °F 71% 30.34 in 10.0 mi West 4.6 mph - N/A   Clear
11:55 PM 28.0 °F 24.2 °F 18.5 °F 67% 30.35 in 10.0 mi WSW 3.5 mph - N/A   Clear
11:56 PM 28.0 °F 24.2 °F 18.5 °F 67% 30.35 in 10.0 mi WSW 3.5 mph - N/A   Clear